Deventer/Teuge, Netherlands
Current Conditions -  °F | °C
As of 5:55 PM on Friday 28 Nov 2014 (Local Time) from EHDL Reporting Station
Haze Haze  
Wind Chill: 36°   Ceiling: 10000
Heat Index: 43°   Visibility: 5mi
Dew Point: 37°   Wind: 13mph
Humidity: 81%   Direction: 90°E
Pressure: 29.85"   Gusts: NA
Location:  52.24°N, 6.05°E
Report Text: EHDL 281655Z AUTO 09011KT 8000 BR OVC100 06/03 Q1011 BLU
Loading
Personal Weather Stations






























Interactive Weather Map New forecast layout! Learn more

10-Day Weather Forecast

Advertisements
Track Severe Weather on mobile